Hartland, Minnesota
Current Conditions -  °F | °C
As of 8:14 AM on Thursday 29 Jan 2015 (Local Time) from KAEL Reporting Station
Overcast Overcast  
Wind Chill: -9°   Ceiling: 1500
Heat Index: -2°   Visibility: 10mi
Dew Point: -2°   Wind: 18mph
Humidity: 100%   Direction: 320°NW
Pressure: 30.1"   Gusts: 25mph
Location:  43.8°N, 93.49°W
Report Text: KAEL 291414Z AUTO 32016G22KT 10SM OVC015 M02/M02 A3010 RMK AO2
Loading
Personal Weather Stations






























Interactive Weather Map New forecast layout! Learn more

10-Day Weather Forecast

Advertisements
Track Severe Weather on mobile